• Join FlightAware (Why Join?)
  • Login
  • US Flag 
09:27AM EDT


 

Airport Tracker/Info


-or-


 

Live Flight TrackerFlight Track Log ✈ UAL6136 ✈ 17-Apr-2013 ✈ KORD - KIAH

Flight Track Log - Related Links

Times and Time Zones

All times are in EDT time to prevent confusion due to time zone crossing. See the UAL6136 flight status page for this flight to view local times or setup timezone preferences in your user account.

Time Position Orientation Groundspeed Altitude Reporting Facility
EDT Latitude Longitude Course Direction KTS MPH feet Rate Location/Type
01:00AM 41.9660 -87.9450 270° West 187 215 1,900  Level FlightAware
01:00AM 41.9580 -87.9570 228° Southwest 197 227 2,100 960 Climbing FlightAware
01:01AM 41.9460 -87.9710 221° Southwest 220 253 2,400 1,860 Climbing FlightAware
01:01AM 41.9210 -87.9990 220° Southwest 237 273 3,500 1,920 Climbing FlightAware
01:01AM 41.8980 -88.0160 209° Southwest 252 290 4,200 1,620 Climbing FlightAware
01:02AM 41.8780 -88.0160 180° South 269 310 4,600 1,200 Climbing FlightAware
01:02AM 41.8420 -88.0150 179° South 266 306 5,100 540 Climbing FlightAware
01:03AM 41.8100 -88.0140 179° South 264 304 5,100 1,500 Level FlightAware
01:03AM 41.7570 -88.0150 181° South 254 292 6,900 2,700 Climbing FlightAware
01:04AM 41.7420 -88.0160 183° South 242 278 7,800 3,600 Climbing FlightAware
01:04AM 41.7130 -88.0170 181° South 235 270 9,300 2,640 Climbing FlightAware
01:05AM 41.6650 -88.0200 183° South 244 281 10,900 2,280 Climbing FlightAware
01:05AM 41.6160 -88.0250 184° South 253 291 12,600 2,400 Climbing FlightAware
01:06AM 41.5720 -88.0300 185° South 259 298 14,100 1,860 Climbing FlightAware
01:07AM 41.5150 -88.0370 185° South 285 328 15,300 1,500 Climbing FlightAware
01:07AM 41.4680 -88.0450 187° South 304 350 16,100 1,500 Climbing FlightAware
01:08AM 41.4370 -88.0390 172° South 314 361 16,700 1,980 Climbing FlightAware
01:09AM 41.3730 -88.0420 182° South 299 344 18,300 1,860 Climbing FlightAware
01:09AM 41.3180 -88.0600 194° South 311 358 19,400 1,320 Climbing FlightAware
01:10AM 41.2610 -88.0790 194° South 332 382 20,100 1,260 Climbing FlightAware
01:11AM 41.1940 -88.1110 200° South 340 391 21,200 1,620 Climbing FlightAware
01:11AM 41.1370 -88.1510 208° Southwest 340 391 22,400 1,800 Climbing FlightAware
01:12AM 41.0750 -88.1940 208° Southwest 339 390 23,800 1,740 Climbing FlightAware
01:13AM 41.0200 -88.2310 207° Southwest 341 392 24,900 1,020 Climbing FlightAware
01:13AM 40.9610 -88.2720 208° Southwest 362 417 25,200 420 Climbing FlightAware
01:14AM 40.8910 -88.3200 207° Southwest 388 447 25,500 480 Climbing FlightAware
01:15AM 40.8290 -88.3630 208° Southwest 402 463 25,900 900 Climbing FlightAware
01:16AM 40.7520 -88.4150 207° Southwest 405 466 26,800 900 Climbing FlightAware
01:16AM 40.6840 -88.4620 208° Southwest 416 479 27,200 480 Climbing FlightAware
01:17AM 40.6130 -88.5090 207° Southwest 433 498 27,500 840 Climbing FlightAware
01:18AM 40.5340 -88.5630 207° Southwest 435 501 28,400 1,080 Climbing FlightAware
01:18AM 40.4620 -88.6120 207° Southwest 437 503 29,100 900 Climbing FlightAware
01:19AM 40.3830 -88.6650 207° Southwest 438 504 29,700 480 Climbing FlightAware
01:20AM 40.3100 -88.7140 207° Southwest 438 504 29,800 -360 Climbing FlightAware
01:20AM 40.2460 -88.7570 207° Southwest 441 507 29,300 -1,020 Descending FlightAware
01:21AM 40.1540 -88.8180 207° Southwest 448 516 28,400 -900 Descending FlightAware
01:22AM 40.0810 -88.8670 207° Southwest 451 519 28,000 -720 Descending FlightAware
01:22AM 40.0060 -88.9170 207° Southwest 449 517 27,500 -840 Descending FlightAware
01:23AM 39.9350 -88.9640 207° Southwest 457 526 26,900 -900 Descending FlightAware
01:24AM 39.8480 -89.0220 207° Southwest 452 520 26,300 -900 Descending FlightAware
01:25AM 39.7630 -89.0780 207° Southwest 441 507 25,600 -900 Descending FlightAware
01:25AM 39.7080 -89.1130 206° Southwest 422 486 25,100 -1,020 Descending FlightAware
01:26AM 39.6180 -89.1730 207° Southwest 413 475 24,200 -780 Descending FlightAware
01:27AM 39.5510 -89.2170 207° Southwest 415 478 24,000 -180 Descending FlightAware
01:27AM 39.4790 -89.2640 207° Southwest 421 484 24,000  Level FlightAware
01:28AM 39.4070 -89.3110 207° Southwest 419 482 24,000  Level FlightAware
01:29AM 39.3320 -89.3600 207° Southwest 422 486 24,000  Level FlightAware
01:29AM 39.2610 -89.4060 207° Southwest 426 490 24,000  Level FlightAware
01:30AM 39.2020 -89.4440 207° Southwest 427 491 24,000  Level FlightAware
01:31AM 39.1100 -89.5030 206° Southwest 428 493 24,000  Level FlightAware
01:32AM 39.0350 -89.5510 206° Southwest 430 495 24,000  Level FlightAware
01:32AM 38.9610 -89.5990 207° Southwest 429 494 24,000  Level FlightAware
01:33AM 38.8910 -89.6440 207° Southwest 428 493 24,000 -540 Level FlightAware
01:34AM 38.8200 -89.6900 207° Southwest 422 486 23,300 -540 Descending FlightAware
01:34AM 38.7630 -89.7260 206° Southwest 422 486 23,300  Level FlightAware
01:35AM 38.6880 -89.7720 206° Southwest 422 486 23,300  Level FlightAware
01:36AM 38.6290 -89.8090 206° Southwest 422 486 23,300  Level FlightAware
01:36AM 38.5690 -89.8470 206° Southwest 422 486 23,300  Level FlightAware
01:37AM 38.5090 -89.8840 206° Southwest 422 486 23,300 -960 Level FlightAware
01:38AM 38.4108 -89.9475 206° Southwest 398 458 22,000 -780 Descending Kansas City Center
01:39AM 38.3058 -90.0158 207° Southwest 407 468 22,000  Level Kansas City Center
01:40AM 38.2047 -90.0797 206° Southwest 406 467 22,000  Level Kansas City Center
01:41AM 38.1033 -90.1436 206° Southwest 407 468 22,000  Level Kansas City Center
01:42AM 38.0014 -90.2072 206° Southwest 408 470 22,000  Level Kansas City Center
01:43AM 37.8906 -90.2753 206° Southwest 411 473 22,000  Level Kansas City Center
01:44AM 37.7967 -90.3336 206° Southwest 413 475 22,000  Level Kansas City Center
01:45AM 37.6917 -90.3972 206° Southwest 416 479 22,000  Level Kansas City Center
01:46AM 37.5881 -90.4614 206° Southwest 416 479 22,000  Level Kansas City Center
01:47AM 37.4850 -90.5278 207° Southwest 415 478 22,000  Level Kansas City Center
01:48AM 37.3864 -90.5975 209° Southwest 410 472 22,000  Level Kansas City Center
01:49AM 37.2903 -90.6678 210° Southwest 407 468 22,000  Level Kansas City Center
01:49AM 37.2439 -90.7008 210° Southwest 415 478 22,000  Level Memphis Center
01:50AM 37.1439 -90.7681 208° Southwest 415 478 22,000  Level Memphis Center
01:51AM 37.0519 -90.8300 208° Southwest 401 461 22,000  Level Memphis Center
01:52AM 36.9536 -90.8994 209° Southwest 401 461 22,000  Level Memphis Center
01:53AM 36.8575 -90.9664 209° Southwest 401 461 22,000  Level Memphis Center
01:54AM 36.7572 -91.0328 208° Southwest 401 461 22,000  Level Memphis Center
01:55AM 36.6608 -91.0992 209° Southwest 401 461 22,000  Level Memphis Center
01:56AM 36.5606 -91.1656 208° Southwest 396 456 22,000  Level Memphis Center
01:57AM 36.4642 -91.2317 209° Southwest 401 461 22,000  Level Memphis Center
01:58AM 36.3636 -91.2975 208° Southwest 401 461 22,000  Level Memphis Center
01:59AM 36.2631 -91.3608 207° Southwest 401 461 22,000  Level Memphis Center
02:00AM 36.1625 -91.4264 208° Southwest 401 461 22,000  Level Memphis Center
02:01AM 36.0658 -91.4919 209° Southwest 401 461 22,000  Level Memphis Center
02:02AM 35.9694 -91.5625 211° Southwest 401 461 22,000  Level Memphis Center
02:03AM 35.8792 -91.6175 206° Southwest 401 461 22,000  Level Memphis Center
02:04AM 35.7764 -91.6850 208° Southwest 401 461 22,000  Level Memphis Center
02:05AM 35.6756 -91.7525 209° Southwest 406 467 22,000  Level Memphis Center
02:06AM 35.5747 -91.8172 208° Southwest 411 473 22,000  Level Memphis Center
02:07AM 35.4778 -91.8817 208° Southwest 411 473 22,000  Level Memphis Center
02:08AM 35.3792 -91.9436 207° Southwest 411 473 22,000  Level Memphis Center
02:09AM 35.2803 -92.0103 209° Southwest 411 473 22,000  Level Memphis Center
02:10AM 35.1814 -92.0719 207° Southwest 411 473 22,000  Level Memphis Center
02:11AM 35.0761 -92.1383 207° Southwest 406 467 22,000  Level Memphis Center
02:12AM 34.9792 -92.2022 208° Southwest 401 461 22,000  Level Memphis Center
02:13AM 34.8822 -92.2658 208° Southwest 401 461 22,000  Level Memphis Center
02:14AM 34.7833 -92.3269 207° Southwest 401 461 22,000  Level Memphis Center
02:15AM 34.6864 -92.3903 208° Southwest 401 461 22,000  Level Memphis Center
02:16AM 34.5872 -92.4561 209° Southwest 401 461 22,000  Level Memphis Center
02:17AM 34.4858 -92.5167 206° Southwest 401 461 22,000  Level Memphis Center
02:19AM 34.2953 -92.6400 208° Southwest 415 478 22,000  Level Fort Worth Center
02:20AM 34.2019 -92.7053 210° Southwest 398 458 22,000  Level Fort Worth Center
02:21AM 34.0997 -92.7636 205° Southwest 398 458 22,000  Level Fort Worth Center
02:22AM 34.0039 -92.8264 209° Southwest 403 464 22,000  Level Fort Worth Center
02:23AM 33.9061 -92.8864 207° Southwest 403 464 22,000  Level Fort Worth Center
02:24AM 33.8203 -92.9383 207° Southwest 403 464 22,000  Level Fort Worth Center
02:25AM 33.7222 -92.9983 207° Southwest 403 464 22,000  Level Fort Worth Center
02:26AM 33.6261 -93.0581 207° Southwest 403 464 22,000  Level Fort Worth Center
02:27AM 33.5281 -93.1178 207° Southwest 403 464 22,000  Level Fort Worth Center
02:28AM 33.4281 -93.1797 207° Southwest 403 464 22,000  Level Fort Worth Center
02:29AM 33.3278 -93.2419 207° Southwest 403 464 22,000  Level Fort Worth Center
02:30AM 33.2275 -93.3011 206° Southwest 403 464 22,000  Level Fort Worth Center
02:31AM 33.1272 -93.3653 208° Southwest 403 464 22,000  Level Fort Worth Center
02:37AM 32.5444 -93.7197 208° Southwest 410 472 22,000  Level FlightAware ADS-B
02:37AM 32.4933 -93.7503 207° Southwest 409 471 22,000  Level FlightAware ADS-B
02:38AM 32.4421 -93.7811 207° Southwest 410 472 22,000  Level FlightAware ADS-B
02:38AM 32.3756 -93.8212 207° Southwest 409 471 22,000  Level FlightAware ADS-B
02:39AM 32.3248 -93.8516 207° Southwest 408 470 22,000  Level FlightAware ADS-B
02:39AM 32.2718 -93.8834 207° Southwest 408 470 22,000  Level FlightAware ADS-B
02:40AM 32.2021 -93.9251 207° Southwest 408 470 22,000  Level FlightAware ADS-B
02:41AM 32.1516 -93.9553 207° Southwest 408 470 22,000  Level FlightAware ADS-B
02:41AM 32.0987 -93.9869 207° Southwest 407 468 22,000  Level FlightAware ADS-B
02:42AM 32.0480 -94.0170 207° Southwest 407 468 22,000  Level FlightAware ADS-B
02:42AM 31.9803 -94.0574 207° Southwest 407 468 22,000  Level FlightAware ADS-B
02:43AM 31.9108 -94.0987 207° Southwest 407 468 22,000  Level FlightAware ADS-B
02:44AM 31.8599 -94.1290 207° Southwest 407 468 22,000  Level FlightAware ADS-B
02:44AM 31.8023 -94.1631 207° Southwest 407 468 22,000  Level FlightAware ADS-B
02:45AM 31.7514 -94.1932 207° Southwest 406 467 22,000  Level FlightAware ADS-B
02:45AM 31.7003 -94.2234 207° Southwest 405 466 22,000  Level FlightAware ADS-B
02:46AM 31.6492 -94.2536 207° Southwest 406 467 22,000  Level FlightAware ADS-B
02:46AM 31.5854 -94.2911 207° Southwest 406 467 22,000  Level FlightAware ADS-B
02:47AM 31.5344 -94.3212 207° Southwest 407 468 22,000  Level FlightAware ADS-B
02:47AM 31.4831 -94.3514 207° Southwest 407 468 22,000  Level FlightAware ADS-B
02:48AM 31.4270 -94.3843 207° Southwest 409 471 22,000  Level FlightAware ADS-B
02:48AM 31.3754 -94.4146 207° Southwest 411 473 22,000  Level FlightAware ADS-B
02:49AM 31.3240 -94.4447 207° Southwest 411 473 22,000  Level FlightAware ADS-B
02:49AM 31.3035 -94.4567 207° Southwest 411 473 22,000  Level FlightAware ADS-B
02:49AM 31.2721 -94.4752 207° Southwest 412 474 22,000  Level FlightAware ADS-B
02:50AM 31.2516 -94.4871 206° Southwest 412 474 22,000  Level FlightAware ADS-B
02:50AM 31.2210 -94.5049 206° Southwest 412 474 22,000  Level FlightAware ADS-B
02:50AM 31.1901 -94.5229 206° Southwest 412 474 22,000  Level FlightAware ADS-B
02:50AM 31.1694 -94.5350 207° Southwest 413 475 22,000  Level FlightAware ADS-B
02:51AM 31.1385 -94.5531 207° Southwest 414 476 22,000  Level FlightAware ADS-B
02:51AM 31.1175 -94.5654 207° Southwest 414 476 22,000  Level FlightAware ADS-B
02:51AM 31.0898 -94.5813 206° Southwest 415 478 22,000  Level FlightAware ADS-B
02:51AM 31.0881 -94.5822 204° Southwest 415 478 22,000  Level FlightAware ADS-B
02:51AM 31.0758 -94.5882 203° Southwest 417 480 22,000  Level FlightAware ADS-B
02:51AM 31.0636 -94.5934 200° South 418 481 22,000  Level FlightAware ADS-B
02:52AM 31.0174 -94.6108 198° South 420 483 22,000  Level FlightAware ADS-B
02:52AM 31.0081 -94.6143 198° South 420 483 22,000  Level FlightAware ADS-B
02:52AM 30.9593 -94.6326 198° South 422 486 22,000  Level FlightAware ADS-B
02:52AM 30.9518 -94.6354 198° South 422 486 22,000 -420 Level FlightAware ADS-B
02:53AM 30.9025 -94.6539 198° South 421 484 21,800 -600 Descending FlightAware ADS-B
02:53AM 30.8957 -94.6564 198° South 422 486 21,700 -1,020 Descending FlightAware ADS-B
02:53AM 30.8472 -94.6747 198° South 410 472 21,300 -1,020 Descending FlightAware ADS-B
02:53AM 30.8411 -94.6770 198° South 408 470 21,200 -1,140 Descending FlightAware ADS-B
02:54AM 30.7897 -94.6959 198° South 398 458 20,700 -1,200 Descending FlightAware ADS-B
02:54AM 30.7872 -94.6968 197° South 398 458 20,600 -2,520 Descending FlightAware ADS-B
02:54AM 30.7355 -94.7160 198° South 393 452 19,400 -2,340 Descending FlightAware ADS-B
02:54AM 30.7329 -94.7169 197° South 392 451 19,400 -2,520 Level FlightAware ADS-B
02:55AM 30.6827 -94.7357 198° South 388 447 18,100 -2,760 Descending FlightAware ADS-B
02:55AM 30.6810 -94.7363 197° South 388 447 18,000 -2,640 Descending FlightAware ADS-B
02:55AM 30.6314 -94.7548 198° South 383 441 16,800 -2,640 Descending FlightAware ADS-B
02:55AM 30.6297 -94.7554 197° South 383 441 16,700 -2,520 Descending FlightAware ADS-B
02:56AM 30.5797 -94.7744 198° South 378 435 15,500 -2,580 Descending FlightAware ADS-B
02:56AM 30.5284 -94.7934 198° South 374 430 14,100 -2,640 Descending FlightAware ADS-B
02:56AM 30.5268 -94.7940 198° South 374 430 14,100 -2,400 Level FlightAware ADS-B
02:57AM 30.4783 -94.8120 198° South 370 426 12,900 -2,640 Descending FlightAware ADS-B
02:57AM 30.4775 -94.8123 198° South 369 425 12,800 -2,520 Descending FlightAware ADS-B
02:57AM 30.4293 -94.8301 198° South 364 419 11,600 -2,040 Descending FlightAware ADS-B
02:58AM 30.3816 -94.8479 198° South 349 402 10,800 -1,500 Descending FlightAware ADS-B
02:58AM 30.3760 -94.8500 198° South 352 405 10,800 -600 Level FlightAware ADS-B
02:58AM 30.3370 -94.8644 198° South 321 369 10,500 -600 Descending FlightAware ADS-B
02:59AM 30.3315 -94.8664 197° South 318 366 10,500 -420 Level FlightAware ADS-B
02:59AM 30.2962 -94.8794 198° South 296 341 10,300 -600 Descending FlightAware ADS-B
02:59AM 30.2909 -94.8813 197° South 294 338 10,200 -780 Descending FlightAware ADS-B
02:59AM 30.2666 -94.8903 198° South 278 320 10,000 -900 Descending FlightAware ADS-B
03:00AM 30.2481 -94.8972 198° South 273 314 9,700 -1,140 Descending FlightAware ADS-B
03:00AM 30.2475 -94.8974 196° South 273 314 9,700 -1,500 Level FlightAware ADS-B
03:00AM 30.2342 -94.9024 198° South 270 311 9,400 -1,620 Descending FlightAware ADS-B
03:00AM 30.2286 -94.9044 197° South 269 310 9,300 -1,620 Descending FlightAware ADS-B
03:00AM 30.2162 -94.9089 197° South 265 305 9,000 -1,200 Descending FlightAware ADS-B
03:00AM 30.2109 -94.9109 198° South 262 302 9,000 -1,200 Level FlightAware ADS-B
03:00AM 30.1990 -94.9153 198° South 258 297 8,700 -1,620 Descending FlightAware ADS-B
03:00AM 30.1938 -94.9172 198° South 256 295 8,600 -1,200 Descending FlightAware ADS-B
03:01AM 30.1816 -94.9218 198° South 252 290 8,400 -1,140 Descending FlightAware ADS-B
03:01AM 30.1767 -94.9236 198° South 251 289 8,300 -1,200 Descending FlightAware ADS-B
03:01AM 30.1652 -94.9279 198° South 246 283 8,100 -900 Descending FlightAware ADS-B
03:01AM 30.1618 -94.9291 197° South 245 282 8,100 -1,200 Level FlightAware ADS-B
03:01AM 30.1490 -94.9339 198° South 241 277 7,800 -1,320 Descending FlightAware ADS-B
03:01AM 30.1409 -94.9369 198° South 239 275 7,700 -1,140 Descending FlightAware ADS-B
03:01AM 30.1328 -94.9399 198° South 237 273 7,500 -1,200 Descending FlightAware ADS-B
03:01AM 30.1251 -94.9427 197° South 236 272 7,400 -1,200 Descending FlightAware ADS-B
03:02AM 30.1171 -94.9456 197° South 235 270 7,200 -1,200 Descending FlightAware ADS-B
03:02AM 30.1095 -94.9484 198° South 234 269 7,100 -1,200 Descending FlightAware ADS-B
03:02AM 30.1015 -94.9513 197° South 233 268 6,900 -960 Descending FlightAware ADS-B
03:02AM 30.0969 -94.9530 198° South 232 267 6,900 -1,200 Level FlightAware ADS-B
03:02AM 30.0859 -94.9569 197° South 231 266 6,600 -1,200 Descending FlightAware ADS-B
03:02AM 30.0813 -94.9585 197° South 230 265 6,600 -960 Level FlightAware ADS-B
03:02AM 30.0734 -94.9614 198° South 229 264 6,400 -2,040 Descending FlightAware ADS-B
03:02AM 30.0657 -94.9643 198° South 232 267 6,100 -2,220 Descending FlightAware ADS-B
03:02AM 30.0620 -94.9657 198° South 236 272 6,000 -1,920 Descending FlightAware ADS-B
03:03AM 30.0493 -94.9704 198° South 238 274 5,600 -1,620 Descending FlightAware ADS-B
03:03AM 30.0462 -94.9715 197° South 238 274 5,600 -1,140 Level FlightAware ADS-B
03:03AM 30.0375 -94.9747 198° South 238 274 5,400 -1,200 Descending FlightAware ADS-B
03:03AM 30.0303 -94.9772 197° South 236 272 5,300 -1,140 Descending FlightAware ADS-B
03:03AM 30.0208 -94.9807 198° South 236 272 5,100 -1,200 Descending FlightAware ADS-B
03:03AM 30.0145 -94.9830 198° South 235 270 5,000 -1,200 Descending FlightAware ADS-B
03:03AM 30.0109 -94.9843 197° South 235 270 4,900 -2,040 Descending FlightAware ADS-B
03:03AM 30.0082 -94.9855 201° Southwest 234 269 4,800 -1,500 Descending FlightAware ADS-B
03:03AM 30.0064 -94.9864 203° Southwest 236 272 4,800  Level FlightAware ADS-B
03:03AM 30.0051 -94.9872 208° Southwest 237 273 4,800 -1,200 Level FlightAware ADS-B
03:03AM 30.0018 -94.9895 211° Southwest 239 275 4,700 -2,040 Descending FlightAware ADS-B
03:03AM 30.0001 -94.9910 217° Southwest 241 277 4,600 -2,040 Descending FlightAware ADS-B
03:04AM 29.9987 -94.9924 221° Southwest 243 280 4,600 -1,200 Level FlightAware ADS-B
03:04AM 29.9962 -94.9953 225° Southwest 246 283 4,500 -1,200 Descending FlightAware ADS-B
03:04AM 29.9948 -94.9973 231° Southwest 247 284 4,500 -2,040 Level FlightAware ADS-B
03:04AM 29.9935 -94.9994 234° Southwest 250 288 4,400 -1,500 Descending FlightAware ADS-B
03:04AM 29.9925 -95.0013 239° Southwest 251 289 4,400 -1,500 Level FlightAware ADS-B
03:04AM 29.9913 -95.0039 242° Southwest 255 293 4,300 -2,040 Descending FlightAware ADS-B
03:04AM 29.9908 -95.0051 244° Southwest 256 295 4,300  Level FlightAware ADS-B
03:04AM 29.9896 -95.0084 247° West 258 297 4,300 -900 Level FlightAware ADS-B
03:04AM 29.9881 -95.0138 252° West 260 299 4,200 -1,200 Descending FlightAware ADS-B
03:04AM 29.9876 -95.0152 248° West 260 299 4,200 -1,200 Level FlightAware ADS-B
03:04AM 29.9829 -95.0331 253° West 259 298 3,900 -1,200 Descending FlightAware ADS-B
03:04AM 29.9823 -95.0355 254° West 259 298 3,900 -1,140 Level FlightAware ADS-B
03:04AM 29.9792 -95.0482 254° West 257 296 3,700 -1,140 Descending FlightAware ADS-B
03:04AM 29.9779 -95.0560 259° West 259 298 3,600 -780 Descending FlightAware ADS-B
03:04AM 29.9776 -95.0585 262° West 259 298 3,600 -1,200 Level FlightAware ADS-B
03:04AM 29.9773 -95.0629 266° West 263 303 3,500 -1,500 Descending FlightAware ADS-B
03:05AM 29.9771 -95.0700 268° West 265 305 3,400 -1,200 Descending FlightAware ADS-B
03:05AM 29.9775 -95.0914 271° West 267 307 3,100 -1,320 Descending FlightAware ADS-B
03:05AM 29.9775 -95.0968 270° West 267 307 3,000 -1,620 Descending FlightAware ADS-B
03:05AM 29.9776 -95.1129 270° West 265 305 2,700 -1,620 Descending FlightAware ADS-B
03:05AM 29.9777 -95.1180 271° West 266 306 2,600 -1,380 Descending FlightAware ADS-B
03:05AM 29.9776 -95.1262 269° West 265 305 2,500 -1,200 Descending FlightAware ADS-B
03:05AM 29.9776 -95.1480 270° West 258 297 2,200 -840 Descending FlightAware ADS-B
03:06AM 29.9776 -95.1553 270° West 264 304 2,200 -600 Level FlightAware ADS-B
03:06AM 29.9775 -95.1629 269° West 249 287 2,100 -540 Descending FlightAware ADS-B
03:06AM 29.9776 -95.1721 271° West 243 280 2,100  Level FlightAware ADS-B
03:06AM 29.9777 -95.1813 271° West 234 269 2,100 -480 Level FlightAware ADS-B
03:06AM 29.9776 -95.2028 270° West 225 259 1,900 -900 Descending FlightAware ADS-B
03:06AM 29.9775 -95.2133 269° West 203 234 1,700 -1,020 Descending FlightAware ADS-B
03:06AM 29.9775 -95.2224 270° West 195 224 1,600 -1,140 Descending FlightAware ADS-B
03:07AM 29.9775 -95.2299 270° West 191 220 1,400 -1,080 Descending FlightAware ADS-B
03:07AM 29.9776 -95.2394 271° West 185 213 1,300 -960 Descending FlightAware ADS-B
03:07AM 29.9776 -95.2485 270° West 176 203 1,100 -1,020 Descending FlightAware ADS-B
03:07AM 29.9775 -95.2611 269° West 169 194 900 -900 Descending FlightAware ADS-B
03:07AM 29.9777 -95.2736 271° West 166 191 700 -840 Descending FlightAware ADS-B
03:08AM 29.9777 -95.2813 270° West 168 193 600 -660 Descending FlightAware ADS-B
03:08AM 29.9776 -95.2915 269° West 171 197 500 -960 Descending FlightAware ADS-B
03:08AM 29.9776 -95.2987 270° West 169 194 300 -360 Descending FlightAware ADS-B
03:08AM 29.9786 -95.3125 270° West 194 223 300  Level Houston Center
03:10AM 29.9833 -95.3333 274° West  Level FlightAware Approximate